TA33 weather

Meyer Field
Rosharon, Texas, United States

Public forecast

Using degrees Fahrenheit for public forecast. Weather courtesy of forecast.io.

METAR (pilot weather report)

Closest report is Houston Southwest Airport, 12.1 nm (22.5 km) NE. Retrieved 2019/07/16 07:35 UTC (5 minutes ago):

KAXH 160735Z AUTO 00000KT 7SM CLR 25/25 A2997 RMK AO2 T02460245

TAF (pilot weather forecast)

Closest forecast is Sugar Land Regional Airport, 15.9 nm (29.5 km) N. Retrieved 2019/07/16 06:22 UTC (1 hour ago):

TAF KSGR 160520Z 1606/1706 17009KT P6SM SKC FM161000 17008KT P6SM FEW045 FM161400 17005KT P6SM BKN050 FM161800 18011KT P6SM VCSH BKN040 FM170000 17008KT P6SM FEW040